createdAt,value
2018-05-31T00:00:10.925Z,8.03
2018-05-31T00:03:14.262Z,8.03
2018-05-31T00:06:22.553Z,7.77
2018-05-31T00:09:25.901Z,8.00
2018-05-31T00:12:29.238Z,7.83
2018-05-31T00:15:33.291Z,7.30
2018-05-31T00:18:37.479Z,7.90
2018-05-31T00:21:40.847Z,7.57
2018-05-31T00:24:44.204Z,7.77
2018-05-31T00:27:47.547Z,7.30
2018-05-31T00:30:50.894Z,7.60
2018-05-31T00:33:54.959Z,7.70
2018-05-31T00:36:58.308Z,7.73
2018-05-31T00:40:01.665Z,8.10
2018-05-31T00:43:05.057Z,7.70
2018-05-31T00:46:08.409Z,8.53
2018-05-31T00:49:11.771Z,7.87
2018-05-31T00:52:16.237Z,8.10
2018-05-31T00:55:37.333Z,8.23
2018-05-31T00:58:40.679Z,7.80
2018-05-31T01:01:44.829Z,8.10
2018-05-31T01:04:48.975Z,8.07
2018-05-31T01:07:52.320Z,8.87
2018-05-31T01:10:56.591Z,8.93
2018-05-31T01:13:59.934Z,9.17
2018-05-31T01:17:03.338Z,8.57
2018-05-31T01:20:06.735Z,9.07
2018-05-31T01:23:10.072Z,9.23
2018-05-31T01:26:13.408Z,9.00
2018-05-31T01:29:16.743Z,8.57
2018-05-31T01:32:20.923Z,8.37
2018-05-31T01:35:24.274Z,9.27
2018-05-31T01:38:33.262Z,9.53
2018-05-31T01:41:36.605Z,9.13
2018-05-31T01:44:39.953Z,9.47
2018-05-31T01:47:43.363Z,9.93
2018-05-31T01:50:47.474Z,10.60
2018-05-31T01:53:52.386Z,10.37
2018-05-31T01:56:55.699Z,11.20
2018-05-31T01:59:59.924Z,11.83
2018-05-31T02:03:04.021Z,11.93
2018-05-31T02:06:07.375Z,12.43
2018-05-31T02:09:10.856Z,13.17
2018-05-31T02:12:14.192Z,12.07
2018-05-31T02:15:18.304Z,12.60
2018-05-31T02:18:21.611Z,12.60
2018-05-31T02:21:24.985Z,12.00
2018-05-31T02:24:28.371Z,12.50
2018-05-31T02:27:31.729Z,12.80
2018-05-31T02:30:35.938Z,12.77
2018-05-31T02:33:39.283Z,13.20
2018-05-31T02:36:42.620Z,13.10
2018-05-31T02:39:46.119Z,12.40
2018-05-31T02:42:49.467Z,12.60
2018-05-31T02:45:52.903Z,12.13
2018-05-31T02:48:56.240Z,13.57
2018-05-31T02:52:00.314Z,12.20
2018-05-31T02:55:03.763Z,12.33
2018-05-31T02:58:07.137Z,11.83
2018-05-31T03:01:11.246Z,11.77
2018-05-31T03:04:14.710Z,12.40
2018-05-31T03:07:18.138Z,12.03
2018-05-31T03:10:21.718Z,12.37
2018-05-31T03:13:25.040Z,12.07
2018-05-31T03:16:28.424Z,11.77
2018-05-31T03:19:31.828Z,11.60
2018-05-31T03:22:35.133Z,10.27
2018-05-31T03:25:39.263Z,10.07
2018-05-31T03:28:43.446Z,9.90
2018-05-31T03:31:46.801Z,10.17
2018-05-31T03:34:50.808Z,9.77
2018-05-31T03:37:54.142Z,9.10
2018-05-31T03:40:57.449Z,8.47
2018-05-31T03:44:00.802Z,8.80
2018-05-31T03:47:04.150Z,8.97
2018-05-31T03:50:07.501Z,8.80
2018-05-31T03:53:10.944Z,8.70
2018-05-31T03:56:14.344Z,8.17
2018-05-31T03:59:17.665Z,8.70
2018-05-31T04:02:21.027Z,8.57
2018-05-31T04:05:24.375Z,8.07
2018-05-31T04:08:27.695Z,9.07
2018-05-31T04:11:31.046Z,8.43
2018-05-31T04:14:35.141Z,8.47
2018-05-31T04:17:38.483Z,8.80
2018-05-31T04:20:41.837Z,8.37
2018-05-31T04:23:45.179Z,8.30
2018-05-31T04:26:48.517Z,8.23
2018-05-31T04:29:51.849Z,8.70
2018-05-31T04:32:55.184Z,7.93
2018-05-31T04:35:58.503Z,8.37
2018-05-31T04:39:01.852Z,8.67
2018-05-31T04:42:05.188Z,8.30
2018-05-31T04:45:08.518Z,7.97
2018-05-31T04:48:12.649Z,7.67
2018-05-31T04:51:15.989Z,8.03
2018-05-31T04:54:19.330Z,8.33
2018-05-31T04:57:23.505Z,7.50
2018-05-31T05:00:26.889Z,7.70
2018-05-31T05:03:30.218Z,7.47
2018-05-31T05:06:33.576Z,7.50
2018-05-31T05:09:36.893Z,7.63
2018-05-31T05:12:40.254Z,8.27
2018-05-31T05:15:43.599Z,7.33
2018-05-31T05:18:46.989Z,7.60
2018-05-31T05:21:51.689Z,8.33
2018-05-31T05:24:55.012Z,7.60
2018-05-31T05:27:58.363Z,7.53
2018-05-31T05:31:01.732Z,7.40
2018-05-31T05:34:05.847Z,7.77
2018-05-31T05:37:09.948Z,7.77
2018-05-31T05:40:13.273Z,7.57
2018-05-31T05:43:16.598Z,7.27
2018-05-31T05:46:19.959Z,7.10
2018-05-31T05:49:23.290Z,7.30
2018-05-31T05:52:26.647Z,7.80
2018-05-31T05:55:31.709Z,7.40
2018-05-31T05:58:36.379Z,8.00
2018-05-31T06:01:39.777Z,7.43
2018-05-31T06:04:43.194Z,7.63
2018-05-31T06:07:47.311Z,7.30
2018-05-31T06:10:51.472Z,7.73
2018-05-31T06:13:54.832Z,7.80
2018-05-31T06:16:58.964Z,7.57
2018-05-31T06:20:02.371Z,7.43
2018-05-31T06:23:05.693Z,7.70
2018-05-31T06:26:09.115Z,7.53
2018-05-31T06:29:12.466Z,7.77
2018-05-31T06:32:15.828Z,8.10
2018-05-31T06:35:19.948Z,7.70
2018-05-31T06:38:24.907Z,7.97
2018-05-31T06:41:28.288Z,8.07
2018-05-31T06:44:32.365Z,7.60
2018-05-31T06:47:35.715Z,7.77
2018-05-31T06:50:39.056Z,7.37
2018-05-31T06:53:42.399Z,7.27
2018-05-31T06:56:45.787Z,8.20
2018-05-31T06:59:49.898Z,8.33
2018-05-31T07:02:54.074Z,8.13
2018-05-31T07:05:57.475Z,7.80
2018-05-31T07:09:00.808Z,8.00
2018-05-31T07:12:04.914Z,8.57
2018-05-31T07:15:09.009Z,8.20
2018-05-31T07:18:13.141Z,7.97
2018-05-31T07:21:16.640Z,8.17
2018-05-31T07:24:19.981Z,8.27
2018-05-31T07:27:23.303Z,9.27
2018-05-31T07:30:26.623Z,8.20
2018-05-31T07:33:30.824Z,8.33
2018-05-31T07:36:34.161Z,8.67
2018-05-31T07:39:37.523Z,9.10
2018-05-31T07:42:40.870Z,9.43
2018-05-31T07:45:44.142Z,9.27
2018-05-31T07:48:47.513Z,9.70
2018-05-31T07:51:50.831Z,9.10
2018-05-31T07:54:54.938Z,8.20
2018-05-31T07:57:59.315Z,8.97
2018-05-31T08:01:02.671Z,9.83
2018-05-31T08:04:06.759Z,10.30
2018-05-31T08:07:10.107Z,10.87
2018-05-31T08:10:13.434Z,9.53
2018-05-31T08:13:16.791Z,10.27
2018-05-31T08:16:20.101Z,10.50
2018-05-31T08:19:23.488Z,10.17
2018-05-31T08:22:26.820Z,10.20
2018-05-31T08:25:30.193Z,10.73
2018-05-31T08:28:33.478Z,10.27
2018-05-31T08:31:37.300Z,10.83
2018-05-31T08:34:41.350Z,10.63
2018-05-31T08:37:44.711Z,10.30
2018-05-31T08:40:48.042Z,10.23
2018-05-31T08:43:51.395Z,9.83
2018-05-31T08:46:54.729Z,10.73
2018-05-31T08:49:58.086Z,11.07
2018-05-31T08:53:01.418Z,10.33
2018-05-31T08:56:05.150Z,11.53
2018-05-31T08:59:08.509Z,11.70
2018-05-31T09:02:11.878Z,11.20
2018-05-31T09:05:15.274Z,10.70
2018-05-31T09:08:18.637Z,11.67
2018-05-31T09:11:22.751Z,11.30
2018-05-31T09:14:27.057Z,11.00
2018-05-31T09:17:30.354Z,11.37
2018-05-31T09:20:34.518Z,10.23
2018-05-31T09:23:37.850Z,10.83
2018-05-31T09:26:41.196Z,10.83
2018-05-31T09:29:44.540Z,10.73
2018-05-31T09:32:47.933Z,12.40
2018-05-31T09:35:51.288Z,11.50
2018-05-31T09:38:54.618Z,12.23
2018-05-31T09:41:57.954Z,11.20
2018-05-31T09:45:02.136Z,11.03
2018-05-31T09:48:05.436Z,10.77
2018-05-31T09:51:08.796Z,11.77
2018-05-31T09:54:12.118Z,11.57
2018-05-31T09:57:15.475Z,11.63
2018-05-31T10:00:19.540Z,12.33
2018-05-31T10:03:22.889Z,12.50
2018-05-31T10:06:26.238Z,12.83
2018-05-31T10:09:29.633Z,12.17
2018-05-31T10:12:32.955Z,12.33
2018-05-31T10:15:37.109Z,11.57
2018-05-31T10:18:40.429Z,12.10
2018-05-31T10:21:43.790Z,11.47
2018-05-31T10:24:47.117Z,11.93
2018-05-31T10:27:50.460Z,12.20
2018-05-31T10:30:54.549Z,11.63
2018-05-31T10:33:57.925Z,11.70
2018-05-31T10:37:01.256Z,13.80
2018-05-31T10:40:04.580Z,12.83
2018-05-31T10:43:07.913Z,11.60
2018-05-31T10:46:11.253Z,11.57
2018-05-31T10:49:15.342Z,10.47
2018-05-31T10:52:18.662Z,10.73
2018-05-31T10:55:22.013Z,10.77
2018-05-31T10:58:25.362Z,10.47
2018-05-31T11:01:29.437Z,10.10
2018-05-31T11:04:32.754Z,10.40
2018-05-31T11:07:36.857Z,9.87
2018-05-31T11:10:40.278Z,10.07
2018-05-31T11:13:44.365Z,9.63
2018-05-31T11:16:48.481Z,30.60
2018-05-31T11:19:51.804Z,9.63
2018-05-31T11:22:55.937Z,11.73
2018-05-31T11:25:59.257Z,11.77
2018-05-31T11:29:02.607Z,11.07
2018-05-31T11:32:05.933Z,10.33
2018-05-31T11:35:09.276Z,10.67
2018-05-31T11:38:12.624Z,10.73
2018-05-31T11:41:16.050Z,10.27
2018-05-31T11:44:19.381Z,11.80
2018-05-31T11:47:22.776Z,10.93
2018-05-31T11:50:26.156Z,11.43
2018-05-31T11:53:29.543Z,10.77
2018-05-31T11:56:32.875Z,10.90
2018-05-31T11:59:36.214Z,9.87
2018-05-31T12:02:39.553Z,9.43
2018-05-31T12:05:42.965Z,8.47
2018-05-31T12:08:46.297Z,7.80
2018-05-31T12:11:49.653Z,7.40
2018-05-31T12:14:52.998Z,7.70
2018-05-31T12:17:56.371Z,7.47
2018-05-31T12:21:00.462Z,6.73
2018-05-31T12:24:03.802Z,7.17
2018-05-31T12:27:07.134Z,7.50
2018-05-31T12:30:10.486Z,7.53
2018-05-31T12:33:13.815Z,6.73
2018-05-31T12:36:17.167Z,6.90
2018-05-31T12:39:21.274Z,6.80
2018-05-31T12:42:25.379Z,7.37
2018-05-31T12:45:28.715Z,7.13
2018-05-31T12:48:32.071Z,6.83
2018-05-31T12:51:35.399Z,6.60
2018-05-31T12:54:38.767Z,6.27
2018-05-31T12:57:42.869Z,6.37
2018-05-31T13:00:46.219Z,6.30
2018-05-31T13:03:49.545Z,5.37
2018-05-31T13:06:52.885Z,5.60
2018-05-31T13:09:56.201Z,6.10
2018-05-31T13:12:59.551Z,5.13
2018-05-31T13:16:02.858Z,4.50
2018-05-31T13:19:06.965Z,4.40
2018-05-31T13:22:11.205Z,4.77
2018-05-31T13:25:15.331Z,3.83
2018-05-31T13:28:18.667Z,3.70
2018-05-31T13:31:22.010Z,3.73
2018-05-31T13:34:26.100Z,4.20
2018-05-31T13:37:29.474Z,3.63
2018-05-31T13:40:32.837Z,3.80
2018-05-31T13:43:36.224Z,3.60
2018-05-31T13:46:39.531Z,3.67
2018-05-31T13:49:42.886Z,4.10
2018-05-31T13:52:46.277Z,3.33
2018-05-31T13:55:49.633Z,3.97
2018-05-31T13:58:52.936Z,3.60
2018-05-31T14:01:56.307Z,4.20
2018-05-31T14:04:59.621Z,3.80
2018-05-31T14:08:02.953Z,3.97
2018-05-31T14:11:06.290Z,4.20
2018-05-31T14:14:09.597Z,3.40
2018-05-31T14:17:12.942Z,3.40
2018-05-31T14:20:16.293Z,3.57
2018-05-31T14:23:19.613Z,3.37
2018-05-31T14:26:22.989Z,3.60
2018-05-31T14:29:26.310Z,3.70
2018-05-31T14:32:29.693Z,4.03
2018-05-31T14:35:33.005Z,3.83
2018-05-31T14:38:36.341Z,4.23
2018-05-31T14:41:40.426Z,3.57
2018-05-31T14:44:43.798Z,4.10
2018-05-31T14:47:47.127Z,3.73
2018-05-31T14:50:50.510Z,3.67
2018-05-31T14:53:53.839Z,3.90
2018-05-31T14:56:57.214Z,3.53
2018-05-31T15:00:00.604Z,3.77
2018-05-31T15:03:04.030Z,4.00
2018-05-31T15:06:08.124Z,3.80
2018-05-31T15:09:11.765Z,4.07
2018-05-31T15:12:15.104Z,3.87
2018-05-31T15:15:18.452Z,3.17
2018-05-31T15:18:22.549Z,3.60
2018-05-31T15:21:25.961Z,3.70
2018-05-31T15:24:30.098Z,3.53
2018-05-31T15:27:33.543Z,3.20
2018-05-31T15:30:36.940Z,4.07
2018-05-31T15:33:40.345Z,3.30
2018-05-31T15:36:43.749Z,3.70
2018-05-31T15:39:47.085Z,3.23
2018-05-31T15:42:50.388Z,3.43
2018-05-31T15:45:53.754Z,3.17
2018-05-31T15:48:57.829Z,3.47
2018-05-31T15:52:01.182Z,3.00
2018-05-31T15:55:04.936Z,2.97
2018-05-31T15:58:08.314Z,3.00
2018-05-31T16:01:11.655Z,7.37
2018-05-31T16:04:14.968Z,2.63
2018-05-31T16:07:18.299Z,3.03
2018-05-31T16:10:21.645Z,2.77
2018-05-31T16:13:24.984Z,2.87
2018-05-31T16:16:28.333Z,2.80
2018-05-31T16:19:31.727Z,3.43
2018-05-31T16:22:35.095Z,3.20
2018-05-31T16:25:38.415Z,3.17
2018-05-31T16:28:41.724Z,2.83
2018-05-31T16:31:45.822Z,2.90
2018-05-31T16:34:49.957Z,3.30
2018-05-31T16:37:54.053Z,3.10
2018-05-31T16:40:57.453Z,3.10
2018-05-31T16:44:00.842Z,3.20
2018-05-31T16:47:04.233Z,2.83
2018-05-31T16:50:07.687Z,2.90
2018-05-31T16:53:11.019Z,3.17
2018-05-31T16:56:15.056Z,3.33
2018-05-31T16:59:18.487Z,3.03
2018-05-31T17:02:21.864Z,3.33
2018-05-31T17:05:25.990Z,2.83
2018-05-31T17:08:30.181Z,3.17
2018-05-31T17:11:33.536Z,3.10
2018-05-31T17:14:36.913Z,3.00
2018-05-31T17:17:40.268Z,3.50
2018-05-31T17:20:43.581Z,3.60
2018-05-31T17:23:46.925Z,3.77
2018-05-31T17:26:50.263Z,3.50
2018-05-31T17:29:53.578Z,3.10
2018-05-31T17:32:56.924Z,2.90
2018-05-31T17:36:00.295Z,3.20
2018-05-31T17:39:03.636Z,3.07
2018-05-31T17:42:06.992Z,3.30
2018-05-31T17:45:10.316Z,3.37
2018-05-31T17:48:14.565Z,3.40
2018-05-31T17:51:17.904Z,2.77
2018-05-31T17:54:21.237Z,2.90
2018-05-31T17:57:25.489Z,3.43
2018-05-31T18:00:29.600Z,3.30
2018-05-31T18:03:33.700Z,3.23
2018-05-31T18:06:37.053Z,3.20
2018-05-31T18:09:40.413Z,2.90
2018-05-31T18:12:44.546Z,3.30
2018-05-31T18:15:47.875Z,3.00
2018-05-31T18:18:51.191Z,3.40
2018-05-31T18:21:54.572Z,3.57
2018-05-31T18:24:57.924Z,3.70
2018-05-31T18:28:02.001Z,3.33
2018-05-31T18:31:05.367Z,3.30
2018-05-31T18:34:08.765Z,3.60
2018-05-31T18:37:12.114Z,3.20
2018-05-31T18:40:16.223Z,3.60
2018-05-31T18:43:19.580Z,3.07
2018-05-31T18:46:22.912Z,2.70
2018-05-31T18:49:26.229Z,2.97
2018-05-31T18:52:29.568Z,2.47
2018-05-31T18:55:32.935Z,3.10
2018-05-31T18:58:36.910Z,2.90
2018-05-31T19:01:40.313Z,2.63
2018-05-31T19:04:43.627Z,2.83
2018-05-31T19:07:47.767Z,2.40
2018-05-31T19:10:51.102Z,2.17
2018-05-31T19:13:58.445Z,2.80
2018-05-31T19:17:01.770Z,2.70
2018-05-31T19:20:05.109Z,2.73
2018-05-31T19:23:09.195Z,2.20
2018-05-31T19:26:12.569Z,2.20
2018-05-31T19:29:16.025Z,2.00
2018-05-31T19:32:20.252Z,2.37
2018-05-31T19:35:29.889Z,2.43
2018-05-31T19:38:34.001Z,2.00
2018-05-31T19:41:38.094Z,2.23
2018-05-31T19:44:41.436Z,2.27
2018-05-31T19:47:45.271Z,2.50
2018-05-31T19:50:48.614Z,1.70
2018-05-31T19:53:53.289Z,2.23
2018-05-31T19:56:56.659Z,2.13
2018-05-31T20:00:05.472Z,1.90
2018-05-31T20:03:15.303Z,2.20
2018-05-31T20:06:18.599Z,1.80
2018-05-31T20:09:21.996Z,2.10
2018-05-31T20:12:25.338Z,2.17
2018-05-31T20:15:28.670Z,2.40
2018-05-31T20:18:32.025Z,2.30
2018-05-31T20:21:35.341Z,1.97
2018-05-31T20:24:38.726Z,2.03
2018-05-31T20:27:42.086Z,1.73
2018-05-31T20:30:46.198Z,1.87
2018-05-31T20:33:50.565Z,2.10
2018-05-31T20:36:53.881Z,1.93
2018-05-31T20:39:57.303Z,1.70
2018-05-31T20:43:00.646Z,2.00
2018-05-31T20:46:04.111Z,2.07
2018-05-31T20:49:08.194Z,1.67
2018-05-31T20:52:11.536Z,2.13
2018-05-31T20:55:14.873Z,1.70
2018-05-31T20:58:18.233Z,1.83
2018-05-31T21:01:21.540Z,1.70
2018-05-31T21:04:25.163Z,1.97
2018-05-31T21:07:28.499Z,1.53
2018-05-31T21:10:32.603Z,1.67
2018-05-31T21:13:35.928Z,1.87
2018-05-31T21:16:39.274Z,1.67
2018-05-31T21:19:42.601Z,1.77
2018-05-31T21:22:46.754Z,1.83
2018-05-31T21:25:50.910Z,1.67
2018-05-31T21:28:54.297Z,1.63
2018-05-31T21:31:57.667Z,1.60
2018-05-31T21:35:01.041Z,1.63
2018-05-31T21:38:04.360Z,1.63
2018-05-31T21:41:07.729Z,1.43
2018-05-31T21:44:11.818Z,1.67
2018-05-31T21:47:15.244Z,1.57
2018-05-31T21:50:18.548Z,1.60
2018-05-31T21:53:21.985Z,1.40
2018-05-31T21:56:25.293Z,1.30
2018-05-31T21:59:28.674Z,1.53
2018-05-31T22:02:31.982Z,1.60
2018-05-31T22:05:35.339Z,1.53
2018-05-31T22:08:38.668Z,1.70
2018-05-31T22:11:42.031Z,1.70
2018-05-31T22:14:45.435Z,1.63
2018-05-31T22:17:48.850Z,1.50
2018-05-31T22:20:52.414Z,1.87
2018-05-31T22:23:55.897Z,1.70
2018-05-31T22:26:59.233Z,1.80
2018-05-31T22:30:02.557Z,1.50
2018-05-31T22:33:05.889Z,1.57
2018-05-31T22:36:10.020Z,1.70
2018-05-31T22:39:13.425Z,1.90
2018-05-31T22:42:16.735Z,1.73
2018-05-31T22:45:20.156Z,1.80
2018-05-31T22:48:23.557Z,2.00
2018-05-31T22:51:26.954Z,2.00
2018-05-31T22:54:30.353Z,2.20
2018-05-31T22:57:33.690Z,2.00
2018-05-31T23:00:37.883Z,1.97
2018-05-31T23:03:41.189Z,2.00
2018-05-31T23:06:45.353Z,2.23
2018-05-31T23:09:48.775Z,2.07
2018-05-31T23:12:52.105Z,2.10
2018-05-31T23:15:56.210Z,2.13
2018-05-31T23:18:59.521Z,1.90
2018-05-31T23:22:03.685Z,2.23
2018-05-31T23:25:07.029Z,2.17
2018-05-31T23:28:11.122Z,1.90
2018-05-31T23:31:14.462Z,2.10
2018-05-31T23:34:18.344Z,2.37
2018-05-31T23:37:22.426Z,2.67
2018-05-31T23:40:25.749Z,2.63
2018-05-31T23:43:29.109Z,2.00
2018-05-31T23:46:32.511Z,2.37
2018-05-31T23:49:35.909Z,2.67
2018-05-31T23:52:39.304Z,2.30
2018-05-31T23:55:42.629Z,2.80
2018-05-31T23:58:46.004Z,2.43
